Time;durP1;ratioP1;P1;durP2;ratioP2;P2;SDS_P1;SDS_P2;PMS_P1;PMS_P2;Temp;Humidity;BMP_temperature;BMP_pressure;BME280_temperature;BME280_humidity;BME280_pressure;Samples;Min_cycle;Max_cycle;Signal;HPM_P1;HPM_P2
2023/08/29 07:23:41;;;;;;;13.50;9.95;;;;;;;-145.79;98.69;77267.06;5274135;28;20408;-67
2023/08/29 07:26:12;;;;;;;11.57;10.40;;;;;;;-145.79;98.71;77254.34;5292058;28;20039;-72
2023/08/29 07:28:44;;;;;;;10.18;9.05;;;;;;;-145.79;98.42;77239.50;5288694;28;20036;-72
2023/08/29 07:31:15;;;;;;;9.07;8.27;;;;;;;-145.79;97.83;77231.03;5287076;28;20027;-76
2023/08/29 07:33:50;;;;;;;10.23;9.27;;;;;;;-145.79;97.75;77211.94;5265151;28;20179;-76
2023/08/29 07:36:21;;;;;;;9.35;8.32;;;;;;;-145.79;97.36;77203.47;5272879;28;20104;-76
2023/08/29 07:38:53;;;;;;;9.05;8.07;;;;;;;-145.79;96.06;77220.44;5276855;28;20163;-76
2023/08/29 07:41:27;;;;;;;8.77;7.97;;;;;;;-145.79;96.03;77218.31;5287728;28;20025;-74
2023/08/29 07:43:58;;;;;;;8.38;7.57;;;;;;;-145.79;95.66;77218.31;5290954;28;20024;-75
2023/08/29 07:46:29;;;;;;;8.07;7.28;;;;;;;-145.79;95.36;77199.22;5293280;28;20043;-77
2023/08/29 07:49:01;;;;;;;8.38;7.05;;;;;;;-145.79;94.96;77211.94;5290879;28;20394;-74
2023/08/29 07:51:32;;;;;;;8.80;7.25;;;;;;;-145.79;94.87;77195.00;5270815;28;20167;-72
2023/08/29 07:54:04;;;;;;;8.15;7.45;;;;;;;-145.79;94.97;77195.00;5283371;28;20024;-77
2023/08/29 07:56:43;;;;;;;8.13;7.43;;;;;;;-145.79;95.77;77182.28;5293701;28;20028;-76
2023/08/29 07:59:15;;;;;;;8.63;7.82;;;;;;;-145.79;95.36;77182.28;5287250;28;20052;-76
2023/08/29 08:01:49;;;;;;;9.32;8.50;;;;;;;-145.79;95.04;77169.56;5260839;28;20110;-77
2023/08/29 08:04:20;;;;;;;7.18;6.55;;;;;;;-145.79;95.18;77154.72;5282483;28;20025;-74
2023/08/29 08:06:51;;;;;;;7.35;6.70;;;;;;;-145.79;94.47;77137.75;5276283;28;20036;-76
2023/08/29 08:09:23;;;;;;;7.07;6.38;;;;;;;-145.79;94.62;77135.66;5282800;28;20501;-77
2023/08/29 08:11:55;;;;;;;10.30;7.85;;;;;;;-145.79;94.24;77135.66;5282720;28;20464;-76
2023/08/29 08:14:27;;;;;;;8.73;7.85;;;;;;;-145.79;94.16;77139.88;5290098;28;20104;-76
2023/08/29 08:17:01;;;;;;;7.13;6.38;;;;;;;-145.79;93.28;77127.16;5275837;28;20390;-76
2023/08/29 08:19:33;;;;;;;7.15;6.55;;;;;;;-145.79;93.07;77110.22;5272567;28;20029;-76
2023/08/29 08:22:08;;;;;;;7.32;6.63;;;;;;;-145.79;92.97;77099.63;5275031;28;20075;-76
2023/08/29 08:24:40;;;;;;;6.65;6.13;;;;;;;-145.79;92.33;77105.97;5275867;28;20499;-77
2023/08/29 08:27:11;;;;;;;8.38;7.22;;;;;;;-145.79;93.18;77103.84;5276948;28;20099;-77
2023/08/29 08:29:43;;;;;;;7.85;7.15;;;;;;;-145.79;93.81;77097.50;5269627;28;20112;-78
2023/08/29 08:32:14;;;;;;;8.15;7.20;;;;;;;-145.79;93.85;77076.31;5280673;28;20063;-77
2023/08/29 08:34:47;;;;;;;7.40;4.82;;;;;;;-145.79;90.40;77076.31;5270162;28;20039;-76
2023/08/29 08:37:18;;;;;;;5.40;4.90;;;;;;;-145.79;89.39;77063.59;5270316;28;20498;-74
2023/08/29 08:39:50;;;;;;;5.93;4.65;;;;;;;-145.79;88.94;77059.34;5270142;28;20017;-71
2023/08/29 08:42:21;;;;;;;5.28;4.78;;;;;;;-145.79;88.79;77042.38;5258303;28;20131;-78
2023/08/29 08:44:53;;;;;;;5.20;4.15;;;;;;;-145.79;86.85;77048.75;5269202;28;20111;-81
2023/08/29 08:47:25;;;;;;;4.95;4.10;;;;;;;-145.79;86.59;77040.25;5268319;28;20040;-81
2023/08/29 08:49:57;;;;;;;4.57;4.18;;;;;;;-145.79;86.51;77029.66;5252863;28;20033;-81
2023/08/29 08:52:33;;;;;;;4.13;3.75;;;;;;;-145.79;86.47;77016.94;5255582;28;20025;-81
2023/08/29 08:55:05;;;;;;;;;;;;;;;-145.79;84.53;77008.47;5254456;28;20452;-81
2023/08/29 08:57:36;;;;;;;5.60;4.03;;;;;;;-145.79;83.58;77036.03;5271015;28;19959;-80
2023/08/29 09:00:08;;;;;;;3.85;3.55;;;;;;;-145.79;84.42;77025.44;5250843;28;20510;-75
2023/08/29 09:02:42;;;;;;;4.32;3.30;;;;;;;-145.79;85.08;77012.72;5257284;28;20030;-75
2023/08/29 09:05:13;;;;;;;4.40;3.55;;;;;;;-145.79;85.83;77004.25;5261091;28;20361;-74
2023/08/29 09:07:47;;;;;;;4.43;3.30;;;;;;;-145.79;86.24;76997.88;5276191;28;20025;-81
2023/08/29 09:10:19;;;;;;;3.25;2.88;;;;;;;-145.79;85.06;76995.75;5280838;28;20099;-81
2023/08/29 09:12:53;;;;;;;3.38;2.50;;;;;;;-145.79;83.88;76993.63;5273686;28;20122;-81
2023/08/29 09:15:26;;;;;;;3.63;2.88;;;;;;;-145.79;82.48;76995.75;5253662;28;20112;-82
2023/08/29 09:17:57;;;;;;;3.10;2.60;;;;;;;-145.79;82.54;77000.00;5246366;28;20036;-83
2023/08/29 09:20:29;;;;;;;3.40;2.90;;;;;;;-145.79;82.62;76987.28;5267556;28;20025;-81
2023/08/29 09:23:00;;;;;;;4.35;3.08;;;;;;;-145.79;83.07;76991.53;5287001;28;20045;-82
2023/08/29 09:25:32;;;;;;;5.45;3.72;;;;;;;-145.79;82.10;76995.75;5259419;28;20025;-83
2023/08/29 09:28:10;;;;;;;5.32;4.28;;;;;;;-145.79;82.21;76978.81;5285079;28;20152;-83
2023/08/29 09:30:41;;;;;;;2.85;2.63;;;;;;;-145.79;81.79;76978.81;5266626;28;20025;-80
2023/08/29 09:33:18;;;;;;;4.80;3.20;;;;;;;-145.79;81.94;76983.03;5255421;28;20481;-79
2023/08/29 09:35:49;;;;;;;4.50;3.47;;;;;;;-145.79;82.24;76961.84;5257943;28;20383;-81
2023/08/29 09:38:21;;;;;;;4.22;2.95;;;;;;;-145.79;81.80;76953.38;5272931;28;20115;-80
2023/08/29 09:40:54;;;;;;;6.78;6.07;;;;;;;-145.79;81.13;76944.91;5267918;28;20021;-75
2023/08/29 09:43:29;;;;;;;3.55;3.03;;;;;;;-145.79;81.35;76942.78;5271249;28;20040;-75
2023/08/29 09:46:03;;;;;;;6.15;3.05;;;;;;;-145.79;80.67;76953.38;5275436;28;20467;-69
2023/08/29 09:48:34;;;;;;;3.85;2.88;;;;;;;-145.79;80.88;76942.78;5269149;28;20024;-77
2023/08/29 09:51:08;;;;;;;2.92;2.53;;;;;;;-145.79;81.15;76942.78;5270148;28;20115;-78
2023/08/29 09:53:41;;;;;;;3.25;2.47;;;;;;;-145.79;81.68;76940.66;5263424;28;20028;-74
2023/08/29 09:56:19;;;;;;;2.58;2.38;;;;;;;-145.79;82.11;76930.06;5282568;28;20546;-78
2023/08/29 09:58:54;;;;;;;2.30;2.10;;;;;;;-145.79;81.44;76919.47;5264161;28;20431;-76
2023/08/29 10:01:26;;;;;;;3.78;2.15;;;;;;;-145.79;80.68;76913.09;5284602;28;20044;-85
2023/08/29 10:04:03;;;;;;;1.77;1.30;;;;;;;-145.79;77.28;76932.19;5283932;28;20037;-81
2023/08/29 10:06:37;;;;;;;2.47;1.77;;;;;;;-145.79;77.59;76923.69;5264836;28;20200;-83
2023/08/29 10:09:10;;;;;;;3.60;1.70;;;;;;;-145.79;77.43;76919.47;5250492;28;20044;-81
2023/08/29 10:11:42;;;;;;;3.47;1.55;;;;;;;-145.79;77.27;76902.50;5270403;28;20051;-82
2023/08/29 10:14:15;;;;;;;14.02;11.85;;;;;;;-145.79;77.68;76898.25;5271076;28;20032;-84
2023/08/29 10:16:48;;;;;;;8.65;6.70;;;;;;;-145.79;75.88;76885.56;5271154;28;20107;-84
2023/08/29 10:19:23;;;;;;;6.68;5.97;;;;;;;-145.79;76.74;76898.25;5251748;28;20032;-78
2023/08/29 10:21:55;;;;;;;7.20;5.00;;;;;;;-145.79;78.29;76881.31;5268634;28;20040;-79
2023/08/29 10:24:26;;;;;;;3.17;2.53;;;;;;;-145.79;78.32;76883.44;5266861;28;20083;-79
2023/08/29 10:26:59;;;;;;;3.45;2.45;;;;;;;-145.79;77.68;76872.84;5262986;28;20029;-72
2023/08/29 10:29:31;;;;;;;3.80;2.53;;;;;;;-145.79;77.88;76864.34;5273986;28;20052;-72
2023/08/29 10:32:04;;;;;;;3.47;1.80;;;;;;;-145.79;74.58;76874.94;5265911;28;20021;-74
2023/08/29 10:34:36;;;;;;;2.17;1.60;;;;;;;-145.79;75.08;76868.59;5279319;28;20071;-73
2023/08/29 10:37:21;;;;;;;3.42;2.42;;;;;;;-145.79;74.82;76862.25;5275581;28;20073;-73
2023/08/29 10:40:06;;;;;;;4.60;1.63;;;;;;;-145.79;74.37;76862.25;5279373;28;20028;-73
2023/08/29 10:42:54;;;;;;;;;;;;;;;-145.79;75.81;76845.28;5268379;28;20025;-75
2023/08/29 10:45:53;;;;;;;2.47;1.92;;;;;;;-145.79;74.68;76843.16;5240651;28;20367;-72
2023/08/29 10:48:30;;;;;;;2.13;1.45;;;;;;;-145.79;73.86;76849.53;5251561;28;20044;-72
2023/08/29 10:51:10;;;;;;;2.63;2.10;;;;;;;-145.79;74.76;76838.94;5274249;28;20024;-74
2023/08/29 10:53:47;;;;;;;4.40;1.80;;;;;;;-145.79;73.82;76830.44;5282011;28;20038;-74
2023/08/29 10:56:24;;;;;;;2.17;1.42;;;;;;;-145.79;73.05;76826.22;5260982;28;20025;-80
2023/08/29 10:58:55;;;;;;;2.92;2.35;;;;;;;-145.79;74.27;76809.25;5262631;28;20032;-75
2023/08/29 11:01:30;;;;;;;5.03;3.00;;;;;;;-145.79;74.38;76798.66;5266450;28;20029;-80
2023/08/29 11:04:13;;;;;;;3.05;1.63;;;;;;;-145.79;72.83;76800.78;5269847;28;20035;-81
2023/08/29 11:06:50;;;;;;;2.15;1.83;;;;;;;-145.79;72.86;76779.59;5263845;28;20020;-83
2023/08/29 11:09:25;;;;;;;5.80;4.80;;;;;;;-145.79;72.35;76758.38;5271928;28;20025;-82
2023/08/29 11:12:06;;;;;;;3.83;2.93;;;;;;;-145.79;72.02;76741.44;5275546;28;20110;-82
2023/08/29 11:14:57;;;;;;;2.30;2.10;;;;;;;-145.79;70.52;76713.88;5261082;28;20286;-80
2023/08/29 11:17:29;;;;;;;4.43;2.10;;;;;;;-145.79;68.77;76709.66;5259707;28;20086;-82
2023/08/29 11:20:06;;;;;;;4.45;1.80;;;;;;;-145.79;68.31;76688.44;5266463;28;20864;-77
2023/08/29 11:22:38;;;;;;;3.47;2.40;;;;;;;-145.79;67.53;76694.81;5267127;28;20381;-81
2023/08/29 11:25:11;;;;;;;3.75;2.40;;;;;;;-145.79;68.67;76669.38;5274455;28;20487;-81
2023/08/29 11:27:44;;;;;;;3.30;2.30;;;;;;;-145.79;69.30;76669.38;5271618;28;20387;-83
2023/08/29 11:30:17;;;;;;;3.38;2.63;;;;;;;-145.79;68.30;76652.44;5268199;28;20025;-85
2023/08/29 11:32:51;;;;;;;3.83;2.30;;;;;;;-145.79;66.42;76643.94;5266035;28;20032;-84
2023/08/29 11:35:22;;;;;;;1.73;1.60;;;;;;;-145.79;64.93;76641.84;5268868;28;20044;-78
2023/08/29 11:37:54;;;;;;;24.55;22.45;;;;;;;-145.79;66.96;76622.75;5272039;28;20029;-76
2023/08/29 11:40:27;;;;;;;5.80;5.25;;;;;;;-145.79;67.18;76607.91;5265047;28;20481;-77
2023/08/29 11:42:58;;;;;;;2.40;2.17;;;;;;;-145.79;63.71;76601.56;5271158;28;20061;-77
2023/08/29 11:45:39;;;;;;;3.38;1.63;;;;;;;-145.79;62.25;76588.84;5270112;28;20445;-80
2023/08/29 11:48:10;;;;;;;3.25;1.60;;;;;;;-145.79;60.96;76586.72;5271515;28;20106;-79
2023/08/29 11:50:42;;;;;;;1.77;1.60;;;;;;;-145.79;63.05;76567.66;5252786;28;20127;-80
2023/08/29 11:53:26;;;;;;;1.95;1.40;;;;;;;-145.79;61.49;76567.66;5261977;28;20104;-82
2023/08/29 11:55:59;;;;;;;1.75;1.58;;;;;;;-145.79;61.51;76571.91;5269193;28;20468;-82
2023/08/29 11:58:32;;;;;;;3.13;2.85;;;;;;;-145.79;61.90;76552.81;5273939;28;20127;-81
2023/08/29 12:01:04;;;;;;;5.38;4.30;;;;;;;-145.79;60.69;76548.59;5273785;28;20091;-84
2023/08/29 12:03:37;;;;;;;2.42;2.10;;;;;;;-145.79;61.12;76557.06;5268740;28;20033;-83
2023/08/29 12:06:10;;;;;;;4.20;1.80;;;;;;;-145.79;61.96;76542.22;5256205;28;20049;-79
2023/08/29 12:08:43;;;;;;;3.05;1.60;;;;;;;-145.79;63.62;76531.63;5272852;28;20444;-83
2023/08/29 12:11:16;;;;;;;2.22;2.00;;;;;;;-145.79;62.65;76512.56;5277543;28;20024;-83
2023/08/29 12:14:01;;;;;;;6.70;2.88;;;;;;;-145.79;62.38;76514.69;5282150;28;20414;-83
2023/08/29 12:16:33;;;;;;;16.07;14.37;;;;;;;-145.79;61.96;76499.84;5284407;28;20025;-82
2023/08/29 12:19:13;;;;;;;14.30;12.85;;;;;;;-145.79;61.48;76501.97;5264045;28;20809;-80
2023/08/29 12:21:55;;;;;;;6.28;2.50;;;;;;;-145.79;62.02;76491.38;5245051;28;20106;-82
2023/08/29 12:24:26;;;;;;;3.88;2.22;;;;;;;-145.79;61.51;76478.66;5278877;28;20048;-81
2023/08/29 12:26:57;;;;;;;3.22;2.35;;;;;;;-145.79;60.88;76482.88;5266762;28;20044;-82
2023/08/29 12:29:29;;;;;;;5.47;2.47;;;;;;;-145.79;60.39;76476.53;5264625;28;20036;-82
2023/08/29 12:32:03;;;;;;;3.53;2.60;;;;;;;-145.79;58.82;76478.66;5275521;28;20029;-83
2023/08/29 12:34:34;;;;;;;3.55;2.50;;;;;;;-145.79;59.44;76434.16;5265198;28;20086;-84
2023/08/29 12:37:05;;;;;;;3.88;2.40;;;;;;;-145.79;56.43;76434.16;5275982;28;20112;-84
2023/08/29 12:39:37;;;;;;;3.70;3.08;;;;;;;-145.79;58.53;76404.47;5269261;28;20391;-83
2023/08/29 12:42:08;;;;;;;11.10;10.15;;;;;;;-145.79;58.08;76400.25;5273796;28;20112;-82
2023/08/29 12:44:39;;;;;;;10.90;9.82;;;;;;;-145.79;58.25;76381.16;5267880;28;20116;-81
2023/08/29 12:47:13;;;;;;;8.10;5.60;;;;;;;-145.79;57.58;76393.88;5260159;28;20494;-80
2023/08/29 12:49:45;;;;;;;4.38;3.97;;;;;;;-145.79;57.41;76381.16;5269328;28;20033;-81
2023/08/29 12:52:18;;;;;;;4.30;3.00;;;;;;;-145.79;56.38;76398.13;5272529;28;20248;-83
2023/08/29 12:54:51;;;;;;;2.50;2.30;;;;;;;-145.79;57.48;76366.34;5273384;28;20029;-84
2023/08/29 12:57:22;;;;;;;2.28;2.08;;;;;;;-145.79;54.63;76374.81;5272872;28;20031;-84
2023/08/29 12:59:53;;;;;;;2.47;2.20;;;;;;;-145.79;53.55;76376.94;5260487;28;20021;-85
2023/08/29 13:02:26;;;;;;;8.30;7.60;;;;;;;-145.79;56.55;76379.06;5271731;28;20040;-84
2023/08/29 13:04:57;;;;;;;3.70;3.40;;;;;;;-145.79;55.99;76406.59;5270642;28;20036;-80
2023/08/29 13:07:28;;;;;;;3.95;3.30;;;;;;;-145.79;57.00;76389.66;5247995;28;20021;-85
2023/08/29 13:10:00;;;;;;;3.47;2.60;;;;;;;-145.79;53.12;76432.03;5266908;28;20052;-84
2023/08/29 13:12:32;;;;;;;3.38;2.95;;;;;;;-145.79;54.61;76440.50;5266159;28;20508;-84
2023/08/29 13:15:10;;;;;;;5.80;5.30;;;;;;;-145.79;57.23;76423.56;5276757;28;20088;-87
2023/08/29 13:17:42;;;;;;;4.95;4.50;;;;;;;-145.79;57.69;76415.06;5264675;28;20063;-83
2023/08/29 13:20:14;;;;;;;6.70;6.00;;;;;;;-145.79;56.81;76419.31;5273358;28;20472;-84
2023/08/29 13:22:49;;;;;;;6.60;6.10;;;;;;;-145.79;56.73;76415.06;5277176;28;20055;-84
2023/08/29 13:25:21;;;;;;;7.35;6.65;;;;;;;-145.79;57.15;76417.19;5272622;28;20033;-84
2023/08/29 13:27:53;;;;;;;9.40;5.93;;;;;;;-145.79;58.10;76408.72;5285311;28;20095;-81
2023/08/29 13:30:24;;;;;;;6.60;6.00;;;;;;;-145.79;56.84;76436.28;5282640;28;20061;-84
2023/08/29 13:32:55;;;;;;;6.75;6.15;;;;;;;-145.79;57.54;76410.84;5282938;28;20393;-84
2023/08/29 13:35:27;;;;;;;7.13;6.60;;;;;;;-145.79;57.47;76389.66;5276347;28;20032;-84
2023/08/29 13:37:58;;;;;;;7.20;6.68;;;;;;;-145.79;56.99;76381.16;5270157;28;20103;-84
2023/08/29 13:40:32;;;;;;;5.75;5.35;;;;;;;-145.79;56.13;76381.16;5276874;28;20480;-85
2023/08/29 13:43:04;;;;;;;5.13;4.72;;;;;;;-145.79;56.24;76370.56;5270307;28;22624;-84
2023/08/29 13:45:35;;;;;;;6.25;5.75;;;;;;;-145.79;56.51;76393.88;5260637;28;20115;-82
2023/08/29 13:48:09;;;;;;;6.03;5.53;;;;;;;-145.79;55.83;76398.13;5257520;28;20032;-83
2023/08/29 13:50:42;;;;;;;8.68;7.88;;;;;;;-145.79;56.53;76383.28;5264542;28;20036;-83
2023/08/29 13:53:13;;;;;;;5.82;5.35;;;;;;;-145.79;56.98;76385.41;5264547;28;20032;-85
2023/08/29 13:55:45;;;;;;;6.55;6.05;;;;;;;-145.79;56.56;76376.94;5264475;28;20053;-85
2023/08/29 13:58:16;;;;;;;6.63;6.13;;;;;;;-145.79;56.49;76370.56;5283444;28;20036;-77
2023/08/29 14:00:47;;;;;;;6.80;6.18;;;;;;;-145.79;55.94;76351.50;5271188;28;20025;-85
2023/08/29 14:03:19;;;;;;;5.78;5.22;;;;;;;-145.79;55.75;76332.44;5281540;28;20479;-86
2023/08/29 14:05:50;;;;;;;5.32;4.93;;;;;;;-145.79;56.23;76340.91;5275778;28;20467;-79
2023/08/29 14:08:22;;;;;;;5.07;4.68;;;;;;;-145.79;55.96;76357.84;5262715;28;20021;-79
2023/08/29 14:11:01;;;;;;;6.82;6.22;;;;;;;-145.79;57.75;76376.94;5277692;28;20024;-80
2023/08/29 14:13:33;;;;;;;5.10;4.70;;;;;;;-145.79;57.44;76370.56;5271040;28;20017;-79
2023/08/29 14:16:04;;;;;;;5.07;4.65;;;;;;;-145.79;58.06;76410.84;5272149;28;20028;-79
2023/08/29 14:18:35;;;;;;;5.60;4.72;;;;;;;-145.79;58.85;76406.59;5272405;28;20021;-80
2023/08/29 14:21:08;;;;;;;5.50;4.50;;;;;;;-145.79;57.99;76404.47;5271398;28;20025;-80
2023/08/29 14:23:40;;;;;;;4.45;4.10;;;;;;;-145.79;58.18;76402.38;5269744;28;20068;-78
2023/08/29 14:26:12;;;;;;;5.13;3.72;;;;;;;-145.79;58.44;76412.97;5271709;28;20124;-87
2023/08/29 14:28:43;;;;;;;5.32;4.82;;;;;;;-145.79;57.70;76410.84;5272474;28;20058;-85
2023/08/29 14:31:14;;;;;;;4.95;4.45;;;;;;;-145.79;57.55;76425.66;5269538;28;20032;-84
2023/08/29 14:33:46;;;;;;;5.30;4.80;;;;;;;-145.79;57.37;76444.75;5263062;28;20028;-84
2023/08/29 14:36:18;;;;;;;6.32;5.90;;;;;;;-145.79;57.67;76461.69;5269930;28;20024;-83
2023/08/29 14:38:50;;;;;;;7.97;7.22;;;;;;;-145.79;58.49;76465.94;5271002;28;20484;-83
2023/08/29 14:41:21;;;;;;;5.72;5.32;;;;;;;-145.79;59.36;76470.19;5277077;28;20021;-84
2023/08/29 14:43:53;;;;;;;6.10;5.60;;;;;;;-145.79;60.31;76468.06;5263637;28;20056;-83
2023/08/29 14:46:25;;;;;;;6.85;6.25;;;;;;;-145.79;59.42;76470.19;5274987;28;20024;-83
2023/08/29 14:48:57;;;;;;;7.07;6.38;;;;;;;-145.79;59.99;76470.19;5283769;28;20036;-82
2023/08/29 14:51:29;;;;;;;12.32;11.23;;;;;;;-145.79;60.64;76485.00;5270411;28;20099;-81
2023/08/29 14:54:03;;;;;;;9.93;9.13;;;;;;;-145.79;61.04;76493.50;5266054;28;20028;-80
2023/08/29 14:56:36;;;;;;;8.88;8.10;;;;;;;-145.79;62.11;76508.31;5267663;28;20037;-85
2023/08/29 14:59:08;;;;;;;8.38;7.68;;;;;;;-145.79;63.22;76497.72;5268485;28;20024;-85
2023/08/29 15:01:41;;;;;;;8.30;7.60;;;;;;;-145.79;63.74;76529.50;5265937;28;20464;-85
2023/08/29 15:04:14;;;;;;;7.57;6.97;;;;;;;-145.79;63.26;76550.69;5273083;28;20036;-83
2023/08/29 15:06:45;;;;;;;8.43;7.50;;;;;;;-145.79;62.95;76569.78;5241955;28;20091;-82
2023/08/29 15:09:16;;;;;;;7.32;6.63;;;;;;;-145.79;63.11;76559.19;5243028;28;20033;-77
2023/08/29 15:11:48;;;;;;;6.80;5.70;;;;;;;-145.79;62.43;76565.53;5260334;28;20464;-75
2023/08/29 15:14:19;;;;;;;6.50;4.80;;;;;;;-145.79;62.06;76559.19;5269200;28;20021;-77
2023/08/29 15:16:50;;;;;;;6.28;4.15;;;;;;;-145.79;60.66;76569.78;5259905;28;20090;-78
2023/08/29 15:19:27;;;;;;;8.40;6.35;;;;;;;-145.79;59.82;76584.59;5267389;28;20472;-81
2023/08/29 15:21:59;;;;;;;13.02;10.52;;;;;;;-145.79;60.35;76576.13;5272026;28;20066;-82
2023/08/29 15:24:30;;;;;;;6.45;2.60;;;;;;;-145.79;59.95;76603.69;5264544;28;20021;-80
2023/08/29 15:27:05;;;;;;;3.28;2.40;;;;;;;-145.79;60.31;76588.84;5261917;28;20027;-80
2023/08/29 15:29:39;;;;;;;4.95;3.00;;;;;;;-145.79;60.43;76597.31;5259028;28;20025;-81
2023/08/29 15:32:11;;;;;;;2.97;2.65;;;;;;;-145.79;60.42;76593.09;5266166;28;20029;-84
2023/08/29 15:34:42;;;;;;;12.30;11.30;;;;;;;-145.79;60.66;76603.69;5268685;28;20036;-82
2023/08/29 15:37:13;;;;;;;4.18;2.85;;;;;;;-145.79;60.45;76599.44;5268856;28;20057;-80
2023/08/29 15:39:46;;;;;;;6.40;3.58;;;;;;;-145.79;61.15;76610.03;5263262;28;20028;-76
2023/08/29 15:42:17;;;;;;;7.88;3.85;;;;;;;-145.79;61.51;76620.63;5260025;28;20148;-82
2023/08/29 15:44:50;;;;;;;4.13;3.38;;;;;;;-145.79;62.27;76631.22;5283672;28;20461;-81
2023/08/29 15:47:22;;;;;;;5.97;3.38;;;;;;;-145.79;62.65;76641.84;5261728;28;20021;-82
2023/08/29 15:49:53;;;;;;;4.47;3.47;;;;;;;-145.79;62.10;76652.44;5265366;28;20082;-81
2023/08/29 15:52:25;;;;;;;7.00;6.35;;;;;;;-145.79;62.05;76663.03;5265366;28;20021;-80
2023/08/29 15:54:56;;;;;;;5.85;3.90;;;;;;;-145.79;62.13;76650.31;5273102;28;20074;-79
2023/08/29 15:57:27;;;;;;;9.77;7.93;;;;;;;-145.79;62.47;76635.47;5272884;28;20484;-83
2023/08/29 15:59:59;;;;;;;7.00;3.97;;;;;;;-145.79;62.46;76627.00;5266017;28;20021;-84
2023/08/29 16:02:30;;;;;;;4.43;3.13;;;;;;;-145.79;62.45;76614.28;5276896;28;20111;-83
2023/08/29 16:05:02;;;;;;;3.92;2.67;;;;;;;-145.79;61.91;76612.16;5265522;28;20396;-84
2023/08/29 16:07:34;;;;;;;3.17;2.80;;;;;;;-145.79;62.27;76607.91;5257153;28;20468;-84
2023/08/29 16:10:06;;;;;;;4.22;2.92;;;;;;;-145.79;62.22;76607.91;5245025;28;20034;-82
2023/08/29 16:12:37;;;;;;;5.82;2.72;;;;;;;-145.79;62.42;76601.56;5263161;28;20028;-83
2023/08/29 16:15:09;;;;;;;4.80;3.13;;;;;;;-145.79;62.75;76597.31;5273328;28;20078;-78
2023/08/29 16:17:41;;;;;;;7.40;2.92;;;;;;;-145.79;62.57;76595.22;5274673;28;20472;-83
2023/08/29 16:20:12;;;;;;;3.65;2.67;;;;;;;-145.79;62.43;76627.00;5272943;28;20053;-83
2023/08/29 16:22:46;;;;;;;3.47;2.50;;;;;;;-145.79;63.49;76627.00;5265448;28;20049;-83
2023/08/29 16:25:17;;;;;;;5.13;3.10;;;;;;;-145.79;63.01;76622.75;5271380;28;20379;-83
2023/08/29 16:27:49;;;;;;;4.63;2.90;;;;;;;-145.79;63.08;76618.53;5266079;28;20025;-78
2023/08/29 16:30:20;;;;;;;3.60;2.88;;;;;;;-145.79;62.55;76620.63;5264220;28;20519;-78
2023/08/29 16:32:51;;;;;;;3.65;2.75;;;;;;;-145.79;62.73;76629.13;5276137;22;20426;-77
2023/08/29 16:35:35;;;;;;;4.38;3.10;;;;;;;-145.79;63.14;76605.81;5244965;28;20034;-77
2023/08/29 16:38:34;;;;;;;4.95;2.47;;;;;;;-145.79;62.86;76597.31;5247346;28;20033;-78
2023/08/29 16:41:05;;;;;;;5.13;3.05;;;;;;;-145.79;62.32;76597.31;5252123;28;20075;-78
2023/08/29 16:43:36;;;;;;;4.10;2.83;;;;;;;-145.79;62.08;76605.81;5247289;28;20033;-78
2023/08/29 16:46:08;;;;;;;5.43;2.92;;;;;;;-145.79;62.73;76599.44;5252762;28;20040;-78
2023/08/29 16:48:39;;;;;;;3.67;2.67;;;;;;;-145.79;62.54;76584.59;5243822;28;20448;-78
2023/08/29 16:51:11;;;;;;;3.92;3.03;;;;;;;-145.79;62.38;76584.59;5246362;28;20056;-78
2023/08/29 16:53:43;;;;;;;4.03;2.55;;;;;;;-145.79;62.10;76590.97;5237855;28;20073;-78
